Time;durP1;ratioP1;P1;durP2;ratioP2;P2;SDS_P1;SDS_P2;PMS_P1;PMS_P2;Temp;Humidity;BMP_temperature;BMP_pressure;BME280_temperature;BME280_humidity;BME280_pressure;Samples;Min_cycle;Max_cycle;Signal;HPM_P1;HPM_P2
2022/09/27 00:00:43;;;;;;;0.60;0.60;;;;;;;13.67;62.91;95018.09;6210685;22;20057;-81
2022/09/27 00:03:12;;;;;;;0.80;0.45;;;;;;;13.67;63.26;95015.50;6212655;22;20069;-80
2022/09/27 00:05:40;;;;;;;0.75;0.40;;;;;;;13.67;63.30;95015.50;6212556;22;20032;-81
2022/09/27 00:08:09;;;;;;;0.50;0.50;;;;;;;13.66;63.17;95014.66;6213003;22;20048;-81
2022/09/27 00:10:37;;;;;;;1.40;0.50;;;;;;;13.66;63.38;95006.03;6211690;22;20061;-80
2022/09/27 00:13:04;;;;;;;0.30;0.30;;;;;;;13.65;63.25;94996.59;6212292;22;20064;-81
2022/09/27 00:15:32;;;;;;;1.42;0.50;;;;;;;13.64;62.90;94998.38;6212464;22;20041;-82
2022/09/27 00:18:00;;;;;;;1.38;0.50;;;;;;;13.63;63.24;94990.78;6212507;22;20028;-80
2022/09/27 00:20:27;;;;;;;0.60;0.30;;;;;;;13.62;62.69;94983.94;6211590;22;20035;-81
2022/09/27 00:22:55;;;;;;;0.30;0.30;;;;;;;13.60;62.71;94973.72;6212339;22;20032;-81
2022/09/27 00:25:24;;;;;;;0.35;0.20;;;;;;;13.58;63.21;94971.34;6212441;22;20017;-81
2022/09/27 00:27:51;;;;;;;0.32;0.30;;;;;;;13.56;62.78;94962.94;6212609;22;20036;-80
2022/09/27 00:30:19;;;;;;;0.38;0.30;;;;;;;13.57;63.04;94959.25;6211945;22;20078;-81
2022/09/27 00:32:47;;;;;;;0.95;0.50;;;;;;;13.57;63.29;94955.84;6212548;22;20001;-80
2022/09/27 00:35:15;;;;;;;0.30;0.30;;;;;;;13.56;63.84;94949.03;6212561;22;20044;-80
2022/09/27 00:37:43;;;;;;;2.65;0.40;;;;;;;13.54;63.86;94956.34;6212716;22;20028;-81
2022/09/27 00:40:10;;;;;;;0.47;0.20;;;;;;;13.51;62.91;94947.16;6211655;22;20005;-79
2022/09/27 00:42:47;;;;;;;0.35;0.35;;;;;;;13.49;63.26;94948.41;6212678;22;20069;-81
2022/09/27 00:45:16;;;;;;;0.17;0.17;;;;;;;13.46;63.31;94943.66;6212963;22;20024;-81
2022/09/27 00:47:53;;;;;;;0.22;0.10;;;;;;;13.44;63.44;94938.63;6212307;22;20036;-81
2022/09/27 00:50:28;;;;;;;0.20;0.20;;;;;;;13.45;63.95;94942.06;6211599;22;20035;-81
2022/09/27 00:53:04;;;;;;;0.57;0.20;;;;;;;13.45;64.09;94932.38;6212316;22;20025;-80
2022/09/27 00:55:37;;;;;;;0.68;0.50;;;;;;;13.43;63.08;94931.03;6212848;22;20020;-81
2022/09/27 00:58:08;;;;;;;0.80;0.20;;;;;;;13.40;63.99;94929.69;6212731;22;20048;-81
2022/09/27 01:00:39;;;;;;;0.20;0.20;;;;;;;13.37;63.63;94924.94;6211769;22;20024;-81
2022/09/27 01:03:12;;;;;;;0.23;0.23;;;;;;;13.35;63.58;94924.38;6211979;22;20027;-81
2022/09/27 01:05:41;;;;;;;0.38;0.20;;;;;;;13.34;64.04;94920.19;6212568;22;20077;-81
2022/09/27 01:08:09;;;;;;;0.63;0.30;;;;;;;13.34;63.73;94915.72;6212639;22;20026;-81
2022/09/27 01:10:46;;;;;;;0.30;0.20;;;;;;;13.35;64.49;94921.75;6211676;22;20040;-81
2022/09/27 01:13:25;;;;;;;0.20;0.20;;;;;;;13.37;64.01;94910.00;6212917;22;20001;-80
2022/09/27 01:15:59;;;;;;;0.50;0.13;;;;;;;13.37;64.18;94919.69;6213016;22;20021;-80
2022/09/27 01:18:34;;;;;;;0.40;0.10;;;;;;;13.38;64.40;94911.59;6213228;22;20012;-80
2022/09/27 01:21:24;;;;;;;0.15;0.10;;;;;;;13.40;64.22;94911.34;6213574;22;20060;-81
2022/09/27 01:24:06;;;;;;;0.35;0.35;;;;;;;13.41;64.07;94914.78;6214315;22;20017;-82
2022/09/27 01:26:54;;;;;;;1.02;0.28;;;;;;;13.42;65.39;94911.09;6213479;22;20005;-80
2022/09/27 01:29:29;;;;;;;0.57;0.25;;;;;;;13.39;64.11;94907.94;6213248;22;20024;-81
2022/09/27 01:32:07;;;;;;;1.42;0.20;;;;;;;13.39;63.83;94901.91;6208698;22;20044;-82
2022/09/27 01:34:44;;;;;;;2.25;0.10;;;;;;;13.38;63.68;94900.31;6209060;23;20023;-81
2022/09/27 01:37:20;;;;;;;0.68;0.28;;;;;;;13.37;64.61;94889.06;6212570;22;20028;-80
2022/09/27 01:39:56;;;;;;;2.38;0.52;;;;;;;13.38;64.84;94879.34;6209946;23;20021;-82
2022/09/27 01:42:26;;;;;;;3.50;0.40;;;;;;;13.38;64.88;94885.41;6211541;23;20072;-82
2022/09/27 01:45:01;;;;;;;0.10;0.10;;;;;;;13.36;64.28;94881.47;6211456;22;20055;-81
2022/09/27 01:47:38;;;;;;;0.10;0.10;;;;;;;13.35;64.50;94890.31;6212038;23;20021;-82
2022/09/27 01:50:11;;;;;;;0.98;0.30;;;;;;;13.35;64.63;94887.72;6209835;23;20036;-81
2022/09/27 01:52:43;;;;;;;0.20;0.20;;;;;;;13.33;64.06;94885.31;6211134;23;20008;-82
2022/09/27 01:55:14;;;;;;;1.63;0.40;;;;;;;13.32;64.96;94888.22;6208754;23;20032;-81
2022/09/27 01:57:47;;;;;;;0.98;0.20;;;;;;;13.31;64.83;94892.63;6210697;23;20049;-82
2022/09/27 02:00:15;;;;;;;2.30;0.47;;;;;;;13.32;64.77;94889.00;6210084;23;20029;-82
2022/09/27 02:02:48;;;;;;;1.33;0.32;;;;;;;13.32;65.75;94896.84;6211483;23;20044;-82
2022/09/27 02:05:18;;;;;;;0.82;0.20;;;;;;;13.33;65.09;94884.53;6210838;23;20072;-81
2022/09/27 02:07:53;;;;;;;0.85;0.20;;;;;;;13.32;65.21;94872.50;6209085;23;20017;-82
2022/09/27 02:12:58;;;;;;;0.98;0.15;;;;;;;13.32;65.66;94867.25;6125127;23;20022;-79
2022/09/27 02:15:26;;;;;;;1.48;0.40;;;;;;;13.33;66.10;94874.84;6124732;23;20469;-80
2022/09/27 02:18:01;;;;;;;0.43;0.13;;;;;;;13.35;66.22;94874.63;6124564;23;20485;-79
2022/09/27 02:20:33;;;;;;;1.40;0.20;;;;;;;13.33;65.30;94872.22;6123202;23;20025;-80
2022/09/27 02:23:13;;;;;;;2.13;0.32;;;;;;;13.34;66.79;94868.59;6125233;23;20022;-80
2022/09/27 02:25:46;;;;;;;1.30;0.05;;;;;;;13.32;65.51;94870.66;6125093;23;20378;-79
2022/09/27 02:28:22;;;;;;;2.50;0.17;;;;;;;13.31;65.03;94869.06;6126542;23;20033;-80
2022/09/27 02:30:50;;;;;;;0.30;0.30;;;;;;;13.28;65.11;94868.72;6125269;23;20026;-80
2022/09/27 02:33:22;;;;;;;1.27;0.40;;;;;;;13.27;65.51;94875.81;6126223;23;20037;-79
2022/09/27 02:35:50;;;;;;;0.10;0.10;;;;;;;13.28;65.53;94871.34;6126733;23;20030;-80
2022/09/27 02:38:18;;;;;;;0.90;0.13;;;;;;;13.28;65.90;94868.72;6126144;23;20020;-80
2022/09/27 02:40:47;;;;;;;0.75;0.30;;;;;;;13.27;65.90;94867.13;6125731;23;20026;-79
2022/09/27 02:43:17;;;;;;;0.82;0.10;;;;;;;13.25;65.33;94864.78;6126820;23;20096;-80
2022/09/27 02:45:57;;;;;;;0.47;0.10;;;;;;;13.25;66.35;94877.88;6126637;23;20026;-80
2022/09/27 02:48:31;;;;;;;0.30;0.20;;;;;;;13.27;66.30;94877.59;6126344;23;20022;-80
2022/09/27 02:51:17;;;;;;;0.30;0.20;;;;;;;13.28;67.09;94864.31;6125541;23;20022;-79
2022/09/27 02:53:59;;;;;;;0.10;0.10;;;;;;;13.28;66.36;94873.97;6126582;23;20053;-80
2022/09/27 02:56:35;;;;;;;1.10;0.10;;;;;;;13.25;66.09;94874.44;6126470;23;20021;-80
2022/09/27 02:59:07;;;;;;;0.95;0.20;;;;;;;13.22;65.47;94865.25;6126135;23;20029;-80
2022/09/27 03:01:42;;;;;;;0.15;0.00;;;;;;;13.18;65.62;94874.59;6125505;23;20057;-80
2022/09/27 03:04:17;;;;;;;0.43;0.10;;;;;;;13.14;66.28;94871.69;6126447;23;20097;-80
2022/09/27 03:06:47;;;;;;;1.23;0.55;;;;;;;13.13;66.49;94866.69;6126267;23;20029;-80
2022/09/27 03:09:18;;;;;;;1.08;0.50;;;;;;;13.11;66.69;94874.78;6126078;23;20025;-79
2022/09/27 03:11:46;;;;;;;0.63;0.10;;;;;;;13.06;66.44;94872.09;6125077;23;20022;-80
2022/09/27 03:14:14;;;;;;;0.25;0.25;;;;;;;13.01;66.83;94900.81;6126043;23;20030;-80
2022/09/27 03:16:41;;;;;;;0.30;0.17;;;;;;;12.94;66.57;94885.28;6127000;23;20022;-80
2022/09/27 03:19:10;;;;;;;1.98;0.73;;;;;;;12.87;67.19;94889.84;6126715;23;20025;-80
2022/09/27 03:21:38;;;;;;;0.10;0.10;;;;;;;12.83;67.12;94893.97;6125176;23;20024;-80
2022/09/27 03:24:06;;;;;;;0.20;0.20;;;;;;;12.80;67.02;94891.84;6126172;23;20034;-80
2022/09/27 03:26:33;;;;;;;0.22;0.22;;;;;;;12.75;66.96;94897.78;6126175;23;20025;-79
2022/09/27 03:29:01;;;;;;;1.48;0.17;;;;;;;12.73;67.59;94899.06;6125701;23;20022;-79
2022/09/27 03:31:29;;;;;;;0.68;0.43;;;;;;;12.72;67.42;94907.91;6125210;23;20030;-80
2022/09/27 03:33:57;;;;;;;0.10;0.10;;;;;;;12.67;67.18;94898.16;6125693;23;20537;-80
2022/09/27 03:36:26;;;;;;;0.57;0.35;;;;;;;12.62;68.03;94902.53;6126213;23;20036;-80
2022/09/27 03:38:53;;;;;;;0.22;0.22;;;;;;;12.58;67.54;94899.59;6125760;23;20463;-80
2022/09/27 03:41:21;;;;;;;0.00;0.00;;;;;;;12.54;67.69;94903.69;6124511;23;20045;-80
2022/09/27 03:43:49;;;;;;;0.08;0.08;;;;;;;12.52;68.34;94903.13;6129138;23;20033;-80
2022/09/27 03:46:16;;;;;;;0.50;0.20;;;;;;;12.52;68.38;94906.53;6130725;23;20026;-80
2022/09/27 03:48:44;;;;;;;0.30;0.17;;;;;;;12.51;68.04;94912.03;6127526;23;20033;-80
2022/09/27 03:51:12;;;;;;;1.98;0.30;;;;;;;12.47;68.57;94916.91;6125189;23;20355;-79
2022/09/27 03:53:41;;;;;;;0.47;0.28;;;;;;;12.47;69.00;94921.38;6125944;23;20025;-80
2022/09/27 03:56:09;;;;;;;0.10;0.10;;;;;;;12.42;68.11;94934.31;6125833;23;20021;-80
2022/09/27 03:58:37;;;;;;;0.52;0.43;;;;;;;12.34;68.17;94933.69;6125904;23;20369;-80
2022/09/27 04:01:04;;;;;;;1.75;0.20;;;;;;;12.30;67.93;94924.72;6125078;23;20026;-80
2022/09/27 04:03:32;;;;;;;1.05;0.32;;;;;;;12.27;67.90;94933.03;6125570;23;20026;-80
2022/09/27 04:05:59;;;;;;;0.98;0.55;;;;;;;12.25;68.37;94927.25;6125600;23;20029;-79
2022/09/27 04:08:27;;;;;;;0.30;0.30;;;;;;;12.26;68.30;94928.03;6125430;23;20362;-80
2022/09/27 04:10:56;;;;;;;1.55;0.40;;;;;;;12.24;68.29;94930.09;6124505;23;20026;-79
2022/09/27 04:13:24;;;;;;;0.50;0.30;;;;;;;12.25;69.34;94932.47;6125496;23;20032;-80
2022/09/27 04:15:51;;;;;;;0.68;0.40;;;;;;;12.26;68.61;94931.44;6125736;23;20021;-80
2022/09/27 04:18:19;;;;;;;1.20;0.30;;;;;;;12.24;68.29;94933.47;6134380;23;20022;-80
2022/09/27 04:20:46;;;;;;;2.08;0.73;;;;;;;12.23;67.83;94933.75;6132117;23;20044;-80
2022/09/27 04:23:14;;;;;;;1.45;0.65;;;;;;;12.21;68.25;94933.19;6132557;23;20104;-79
2022/09/27 04:25:42;;;;;;;2.13;0.35;;;;;;;12.19;68.20;94941.25;6127782;23;20025;-77
2022/09/27 04:28:11;;;;;;;1.60;0.40;;;;;;;12.19;67.97;94936.00;6125063;23;20101;-78
2022/09/27 04:30:40;;;;;;;1.25;0.40;;;;;;;12.16;68.01;94939.09;6124333;23;20354;-76
2022/09/27 04:33:07;;;;;;;0.40;0.30;;;;;;;12.15;67.97;94940.13;6125052;23;20030;-77
2022/09/27 04:38:22;;;;;;;1.63;0.63;;;;;;;12.12;68.01;94943.19;6139664;23;20041;-77
2022/09/27 04:40:50;;;;;;;1.55;0.90;;;;;;;12.08;67.45;94957.75;6130834;23;20077;-78
2022/09/27 04:43:19;;;;;;;2.00;0.50;;;;;;;12.05;67.40;94953.00;6125743;23;20033;-77
2022/09/27 04:45:47;;;;;;;0.50;0.20;;;;;;;12.01;67.14;94949.25;6128066;23;20021;-78
2022/09/27 04:48:14;;;;;;;0.40;0.40;;;;;;;11.97;66.67;94953.34;6132551;23;20033;-80
2022/09/27 04:50:42;;;;;;;1.20;0.73;;;;;;;11.95;67.36;94961.41;6129719;23;20038;-77
2022/09/27 04:53:13;;;;;;;1.67;0.40;;;;;;;11.93;67.16;94964.25;6124927;23;20021;-78
2022/09/27 04:55:45;;;;;;;1.73;0.68;;;;;;;11.93;68.00;94959.03;6100396;23;20366;-78
2022/09/27 05:00:58;;;;;;;0.77;0.40;;;;;;;11.90;67.25;94975.16;6147226;23;20045;-81
2022/09/27 05:06:09;;;;;;;1.47;0.73;;;;;;;11.84;67.89;94989.13;6207169;22;20028;-80
2022/09/27 05:08:37;;;;;;;0.90;0.50;;;;;;;11.81;67.43;94970.50;6212074;22;20009;-81
2022/09/27 05:16:27;;;;;;;3.30;1.20;;;;;;;11.72;68.53;94989.13;6211450;22;20024;-81
2022/09/27 05:19:01;;;;;;;2.45;1.10;;;;;;;11.73;68.57;94992.53;6213274;22;20017;-81
2022/09/27 05:21:31;;;;;;;1.63;0.95;;;;;;;11.72;68.55;94993.56;6212832;22;20009;-80
2022/09/27 05:24:00;;;;;;;2.22;1.00;;;;;;;11.70;69.38;94995.63;6212856;22;20048;-80
2022/09/27 05:26:29;;;;;;;2.35;1.25;;;;;;;11.69;69.66;95004.47;6213357;22;20007;-80
2022/09/27 05:28:58;;;;;;;2.63;1.30;;;;;;;11.65;68.58;95004.09;6212885;22;20056;-81
2022/09/27 05:31:28;;;;;;;1.75;0.70;;;;;;;11.61;68.94;95012.63;6212907;22;20032;-81
2022/09/27 05:33:57;;;;;;;4.05;2.00;;;;;;;11.61;69.78;95008.22;6212981;22;20061;-80
2022/09/27 05:36:26;;;;;;;2.10;1.27;;;;;;;11.64;70.09;95001.75;6213042;22;20038;-81
2022/09/27 05:38:55;;;;;;;2.45;0.85;;;;;;;11.64;69.68;95004.34;6206026;22;20045;-81
2022/09/27 05:41:24;;;;;;;2.75;1.08;;;;;;;11.62;69.25;95019.44;6212994;23;20009;-81
2022/09/27 05:43:55;;;;;;;3.03;1.30;;;;;;;11.60;69.28;95011.03;6213315;23;20009;-80
2022/09/27 05:46:25;;;;;;;1.95;0.85;;;;;;;11.58;68.89;95013.88;6213123;23;20011;-80
2022/09/27 05:48:55;;;;;;;6.88;1.10;;;;;;;11.57;70.35;95008.88;6213030;23;20016;-81
2022/09/27 05:51:24;;;;;;;3.25;0.80;;;;;;;11.59;70.52;95009.44;6212713;23;20025;-80
2022/09/27 05:53:53;;;;;;;2.97;1.17;;;;;;;11.58;69.62;95011.25;6213292;23;20092;-80
2022/09/27 05:56:23;;;;;;;2.90;1.00;;;;;;;11.57;69.84;95014.09;6212594;23;20009;-81
2022/09/27 05:58:54;;;;;;;3.35;1.85;;;;;;;11.58;69.88;95018.31;6176925;22;20005;-81
2022/09/27 06:01:26;;;;;;;3.92;1.40;;;;;;;11.55;69.54;95020.34;6212311;22;20064;-81
2022/09/27 06:03:56;;;;;;;2.35;0.98;;;;;;;11.54;69.78;95024.00;6212477;22;20017;-81
2022/09/27 06:06:25;;;;;;;3.35;1.35;;;;;;;11.51;69.94;95028.88;6214969;22;20009;-81
2022/09/27 06:12:00;;;;;;;4.00;1.50;;;;;;;11.49;70.82;95042.13;6192984;22;19942;31
2022/09/27 06:14:29;;;;;;;3.17;1.15;;;;;;;11.45;70.15;95035.78;6128911;23;20022;-81
2022/09/27 06:19:38;;;;;;;3.97;0.70;;;;;;;11.42;69.52;95036.22;6183428;22;20021;-81
2022/09/27 06:22:07;;;;;;;3.75;1.13;;;;;;;11.41;69.71;95052.91;6214389;22;20001;-80
2022/09/27 06:24:36;;;;;;;2.13;0.70;;;;;;;11.41;69.70;95052.91;6214469;22;20021;-80
2022/09/27 06:29:40;;;;;;;1.73;0.85;;;;;;;11.42;70.38;95057.13;6205301;22;20001;-81
2022/09/27 06:34:46;;;;;;;1.90;0.70;;;;;;;11.41;70.26;95055.50;6192878;22;20008;-81
2022/09/27 06:37:15;;;;;;;3.17;0.80;;;;;;;11.40;70.65;95063.59;6214792;22;20025;-80
2022/09/27 06:42:28;;;;;;;2.60;0.95;;;;;;;11.34;70.25;95060.84;6173408;22;20032;-82
2022/09/27 06:47:38;;;;;;;0.65;0.40;;;;;;;11.29;69.37;95067.75;6202158;22;20012;-81
2022/09/27 06:50:11;;;;;;;1.20;0.45;;;;;;;11.27;68.92;95075.03;6214146;22;20009;-80
2022/09/27 06:52:46;;;;;;;;;;;;;;;11.29;69.16;95078.22;6185228;23;20009;-81
2022/09/27 07:00:46;;;;;;;5.22;1.08;;;;;;;11.19;68.74;95091.78;6214063;23;20032;-81
2022/09/27 07:03:15;;;;;;;3.53;0.70;;;;;;;11.18;68.82;95092.03;6214375;23;20009;-81
2022/09/27 07:05:56;;;;;;;1.20;0.50;;;;;;;11.15;68.85;95098.50;6214431;23;20005;-81
2022/09/27 07:08:27;;;;;;;0.95;0.60;;;;;;;11.12;68.81;95099.69;6214342;23;20001;-81
2022/09/27 07:11:01;;;;;;;2.97;0.70;;;;;;;11.12;69.76;95099.69;6213951;23;20044;-81
2022/09/27 07:13:33;;;;;;;3.30;1.20;;;;;;;11.16;69.80;95104.50;6214298;23;20072;-80
2022/09/27 07:16:02;;;;;;;0.80;0.60;;;;;;;11.18;69.08;95107.69;6213770;23;20017;-81
2022/09/27 07:18:31;;;;;;;0.60;0.50;;;;;;;11.18;69.53;95108.47;6214398;23;20021;-81
2022/09/27 07:21:01;;;;;;;1.10;1.00;;;;;;;11.18;69.03;95112.91;6213851;23;20005;-81
2022/09/27 07:23:31;;;;;;;1.02;0.70;;;;;;;11.16;69.10;95120.16;6214152;23;20017;-81
2022/09/27 07:26:03;;;;;;;1.38;0.80;;;;;;;11.16;69.28;95122.75;6213790;23;20010;-81
2022/09/27 07:28:32;;;;;;;1.48;0.70;;;;;;;11.16;69.22;95120.16;6214451;23;20021;-81
2022/09/27 07:31:02;;;;;;;2.10;1.00;;;;;;;11.18;69.50;95128.56;6213423;23;20005;-80
2022/09/27 07:33:32;;;;;;;2.65;1.52;;;;;;;11.17;69.88;95132.19;6214212;23;20009;-81
2022/09/27 07:36:07;;;;;;;5.35;1.35;;;;;;;11.17;72.17;95138.19;6214297;23;20061;-81
2022/09/27 07:38:36;;;;;;;3.45;1.50;;;;;;;11.16;70.78;95135.81;6214134;23;20033;-81
2022/09/27 07:41:08;;;;;;;3.60;1.67;;;;;;;11.12;69.87;95144.06;6214999;23;20004;-81
2022/09/27 07:43:37;;;;;;;;;;;;;;;11.12;70.22;95149.28;6226460;22;20020;-81
2022/09/27 07:48:41;;;;;;;0.93;0.90;;;;;;;11.08;69.58;95150.75;6206715;22;20219;-82
2022/09/27 07:51:12;;;;;;;1.52;0.80;;;;;;;11.07;70.04;95164.81;6213646;22;20009;-81
2022/09/27 07:53:43;;;;;;;1.88;0.68;;;;;;;11.09;69.82;95162.78;6213614;22;20056;-81
2022/09/27 07:56:14;;;;;;;5.40;0.80;;;;;;;11.08;69.18;95166.41;6213769;22;20024;-81
2022/09/27 07:58:43;;;;;;;0.80;0.52;;;;;;;11.09;69.92;95173.22;6214051;22;20056;-81
2022/09/27 08:01:13;;;;;;;1.63;0.60;;;;;;;11.09;69.02;95164.59;6202317;22;20016;-81
2022/09/27 08:03:42;;;;;;;1.73;0.93;;;;;;;11.06;69.39;95168.47;6213568;22;20069;-80
2022/09/27 08:06:13;;;;;;;3.10;1.00;;;;;;;11.05;69.13;95172.06;6213670;22;20076;-81
2022/09/27 08:08:42;;;;;;;3.92;1.48;;;;;;;11.05;69.17;95177.28;6213933;22;20011;-81
2022/09/27 08:11:14;;;;;;;3.47;1.30;;;;;;;11.05;69.26;95176.50;6209515;22;20028;-78
2022/09/27 08:13:51;;;;;;;2.47;0.95;;;;;;;11.05;68.83;95182.50;6212142;22;20013;-81
2022/09/27 08:16:19;;;;;;;1.42;1.00;;;;;;;11.05;68.69;95182.50;6213601;22;20005;-82
2022/09/27 08:18:47;;;;;;;1.70;1.20;;;;;;;11.06;69.16;95183.28;6213669;22;20013;-82
2022/09/27 08:21:17;;;;;;;3.58;1.88;;;;;;;11.08;68.69;95189.88;6212845;22;20019;-82
2022/09/27 08:23:47;;;;;;;2.60;1.48;;;;;;;11.10;69.22;95190.47;6213471;22;20009;-82
2022/09/27 08:26:15;;;;;;;4.75;2.45;;;;;;;11.13;68.79;95195.25;6213293;22;20013;-81
2022/09/27 08:28:43;;;;;;;2.25;1.10;;;;;;;11.13;68.85;95187.44;6213185;22;20039;-82
2022/09/27 08:31:11;;;;;;;2.83;1.10;;;;;;;11.16;69.17;95198.44;6212921;22;20009;-82
2022/09/27 08:33:42;;;;;;;3.15;1.30;;;;;;;11.19;70.43;95200.59;6213067;22;20053;-82
2022/09/27 08:36:12;;;;;;;3.65;1.67;;;;;;;11.23;69.40;95199.16;6213413;22;20001;-82
2022/09/27 08:38:42;;;;;;;1.27;0.70;;;;;;;11.21;68.47;95211.63;6213539;22;20005;-82
2022/09/27 08:44:19;;;;;;;8.82;2.10;;;;;;;11.24;68.94;95213.78;6213685;22;20031;-82
2022/09/27 08:47:02;;;;;;;1.35;0.73;;;;;;;11.29;69.40;95224.38;6213415;22;20005;-82
2022/09/27 08:49:36;;;;;;;5.88;3.10;;;;;;;11.33;68.96;95215.91;6213601;22;20017;-81
2022/09/27 08:52:20;;;;;;;4.63;1.48;;;;;;;11.38;70.20;95220.44;6212796;22;20008;-81
2022/09/27 08:54:51;;;;;;;2.78;0.32;;;;;;;11.42;67.92;95224.22;6213440;22;20008;-82
2022/09/27 08:57:21;;;;;;;1.75;0.22;;;;;;;11.45;67.84;95223.78;6213384;22;20040;-82
2022/09/27 09:00:03;;;;;;;1.95;1.40;;;;;;;11.46;68.53;95217.53;6213346;22;20009;-82
2022/09/27 09:02:39;;;;;;;9.10;3.70;;;;;;;11.54;68.82;95225.06;6213459;22;20009;-82
2022/09/27 09:05:18;;;;;;;1.40;0.73;;;;;;;11.62;68.19;95225.78;6213205;22;20025;-82
2022/09/27 09:08:01;;;;;;;1.58;1.10;;;;;;;11.70;68.43;95231.50;6213342;22;20193;-81
2022/09/27 09:13:50;;;;;;;0.85;0.47;;;;;;;11.78;67.30;95219.91;6213548;22;20062;-82
2022/09/27 09:16:35;;;;;;;1.23;0.43;;;;;;;11.80;68.08;95237.97;6213552;22;20029;-82
2022/09/27 09:19:32;;;;;;;0.68;0.40;;;;;;;11.85;68.77;95231.09;6213440;22;20005;-82
2022/09/27 09:22:36;;;;;;;1.58;0.40;;;;;;;11.89;67.18;95234.06;6212792;22;20023;-82
2022/09/27 09:25:40;;;;;;;1.65;0.65;;;;;;;11.92;66.61;95228.41;6212961;22;20001;-82
2022/09/27 09:28:26;;;;;;;1.35;0.68;;;;;;;11.91;65.95;95227.59;6213408;22;20013;-82
2022/09/27 09:31:04;;;;;;;4.47;2.30;;;;;;;11.89;66.30;95227.00;6212892;22;20035;-81
2022/09/27 09:33:39;;;;;;;4.97;2.95;;;;;;;11.89;66.50;95228.84;6213254;22;20009;-82
2022/09/27 09:36:14;;;;;;;1.10;0.60;;;;;;;11.92;66.28;95233.63;6213471;22;20012;-82
2022/09/27 09:38:51;;;;;;;0.82;0.47;;;;;;;12.02;65.62;95235.69;6213083;22;20001;-81
2022/09/27 09:41:28;;;;;;;0.57;0.38;;;;;;;12.14;65.39;95229.47;6214921;22;20036;-82
2022/09/27 09:44:01;;;;;;;1.02;0.57;;;;;;;12.32;66.20;95240.88;6215152;22;20009;-82
2022/09/27 09:46:36;;;;;;;0.63;0.40;;;;;;;12.43;64.02;95234.84;6215323;22;20040;-81
2022/09/27 09:49:18;;;;;;;2.13;0.60;;;;;;;12.50;62.84;95234.72;6215182;22;20017;-81
2022/09/27 09:52:01;;;;;;;4.07;1.55;;;;;;;12.55;63.06;95234.84;6214743;22;20009;-82
2022/09/27 09:54:40;;;;;;;1.30;0.40;;;;;;;12.61;62.94;95247.00;6214985;22;20005;-80
2022/09/27 09:57:16;;;;;;;2.30;0.32;;;;;;;12.60;61.87;95248.03;6214874;22;20032;-82
2022/09/27 09:59:53;;;;;;;1.40;0.55;;;;;;;12.61;61.86;95241.00;6214908;22;20048;-82
2022/09/27 10:02:28;;;;;;;5.45;1.60;;;;;;;12.60;62.30;95250.66;6214870;22;20005;-82
2022/09/27 10:04:58;;;;;;;7.10;3.50;;;;;;;12.60;62.92;95248.03;6214823;22;20009;-81
2022/09/27 10:07:39;;;;;;;0.95;0.77;;;;;;;12.57;62.94;95246.69;6214992;22;20017;-82
2022/09/27 10:10:15;;;;;;;1.98;0.60;;;;;;;12.56;62.91;95257.38;6214624;22;20016;-82
2022/09/27 10:12:47;;;;;;;4.30;1.30;;;;;;;12.55;63.29;95259.19;6214745;22;20029;-81
2022/09/27 10:15:23;;;;;;;2.67;1.27;;;;;;;12.56;63.02;95259.97;6190309;22;20072;-82
2022/09/27 10:17:58;;;;;;;2.05;0.75;;;;;;;12.57;62.50;95258.94;6214878;22;20007;-82
2022/09/27 10:20:30;;;;;;;;;;;;;;;12.65;62.82;95253.38;6214987;22;20012;-82
2022/09/27 10:23:06;;;;;;;0.50;0.50;;;;;;;12.69;62.35;95251.91;6214977;22;19900;-82
2022/09/27 10:25:48;;;;;;;1.80;0.65;;;;;;;12.76;62.57;95268.28;6214886;22;20032;-82
2022/09/27 10:28:31;;;;;;;2.22;0.85;;;;;;;12.81;61.45;95266.81;6214800;22;20009;-82
2022/09/27 10:31:05;;;;;;;1.10;0.65;;;;;;;12.82;61.35;95268.41;6214616;22;20005;-81
2022/09/27 10:33:37;;;;;;;2.20;0.80;;;;;;;12.81;61.51;95274.66;6214703;22;20040;-82
2022/09/27 10:36:23;;;;;;;0.60;0.40;;;;;;;12.80;63.09;95273.06;6214754;22;20060;-82
2022/09/27 10:38:59;;;;;;;0.68;0.40;;;;;;;12.79;62.68;95290.59;6215108;22;20044;-82
2022/09/27 10:41:35;;;;;;;0.93;0.52;;;;;;;12.76;63.23;95275.34;6214160;22;20012;-82
2022/09/27 10:44:21;;;;;;;0.63;0.40;;;;;;;12.73;62.20;95281.84;6214808;22;20028;-81
2022/09/27 10:46:58;;;;;;;0.25;0.25;;;;;;;12.70;61.85;95271.00;6214500;22;20005;-82
2022/09/27 10:49:31;;;;;;;2.28;0.32;;;;;;;12.69;62.38;95278.06;6189378;22;20019;-82
2022/09/27 10:52:05;;;;;;;;;;;;;;;12.70;62.70;95271.00;6214020;22;20036;-81
2022/09/27 10:54:46;;;;;;;2.00;1.05;;;;;;;12.68;62.77;95268.66;6214927;22;19904;-82
2022/09/27 10:57:20;;;;;;;1.27;0.50;;;;;;;12.75;62.15;95258.84;6214271;22;20020;-82
2022/09/27 10:59:54;;;;;;;2.25;0.90;;;;;;;13.00;64.58;95260.44;6214542;22;20021;-82
2022/09/27 11:02:31;;;;;;;1.95;0.75;;;;;;;13.42;65.09;95257.63;6214154;22;20009;-81
2022/09/27 11:05:12;;;;;;;1.60;1.10;;;;;;;13.79;63.65;95258.06;6214623;22;20001;-82
2022/09/27 11:08:04;;;;;;;0.93;0.70;;;;;;;14.17;62.84;95258.47;6189859;22;20005;-82
2022/09/27 11:10:39;;;;;;;2.97;0.98;;;;;;;14.36;60.44;95259.81;6214179;22;20065;-81
2022/09/27 11:13:16;;;;;;;1.40;0.50;;;;;;;14.45;60.03;95264.69;6214338;22;20009;-81
2022/09/27 11:16:12;;;;;;;2.80;1.10;;;;;;;14.51;59.75;95259.28;6214430;22;20001;-81
2022/09/27 11:19:09;;;;;;;1.05;0.50;;;;;;;14.54;59.31;95264.06;6214353;22;20005;-82
2022/09/27 11:21:50;;;;;;;;;;;;;;;14.59;59.02;95271.25;6214631;22;20005;-82
2022/09/27 11:24:49;;;;;;;1.40;0.38;;;;;;;14.55;59.06;95262.25;6214553;22;19908;-82
2022/09/27 11:27:36;;;;;;;1.20;0.50;;;;;;;14.50;57.54;95251.66;6214471;22;20005;-82
2022/09/27 11:30:15;;;;;;;0.65;0.65;;;;;;;14.46;58.50;95255.78;6214086;22;20028;-82
2022/09/27 11:33:10;;;;;;;2.83;0.47;;;;;;;14.45;59.66;95247.09;6214295;22;20009;-82
2022/09/27 11:35:56;;;;;;;1.67;0.60;;;;;;;14.42;60.33;95235.25;6214431;22;20001;-81
2022/09/27 11:38:31;;;;;;;1.50;0.68;;;;;;;14.41;60.30;95238.16;6214336;22;20012;-82
2022/09/27 11:41:30;;;;;;;0.90;0.40;;;;;;;14.38;60.57;95231.53;6213933;22;20025;-82
2022/09/27 11:44:18;;;;;;;2.17;0.55;;;;;;;14.33;59.70;95241.16;6214197;22;20001;-82
2022/09/27 11:46:58;;;;;;;1.27;0.80;;;;;;;14.28;61.31;95234.00;6214249;22;20005;-81
2022/09/27 11:50:06;;;;;;;1.38;0.70;;;;;;;14.18;58.49;95231.22;6214237;22;20005;-81
2022/09/27 11:52:49;;;;;;;1.10;0.50;;;;;;;14.04;57.85;95237.78;6214019;22;20016;-81
2022/09/27 11:55:31;;;;;;;1.02;0.57;;;;;;;13.92;58.42;95228.16;6213948;22;20009;-81
2022/09/27 11:58:10;;;;;;;1.30;0.60;;;;;;;13.84;59.16;95225.94;6214008;22;20005;-82
2022/09/27 12:00:56;;;;;;;1.02;0.70;;;;;;;13.81;60.61;95213.28;6213594;22;20013;-82
2022/09/27 12:06:47;;;;;;;1.15;0.60;;;;;;;13.76;59.64;95221.84;6213891;22;20001;-81
2022/09/27 12:09:20;;;;;;;0.50;0.50;;;;;;;13.70;59.28;95212.31;6189076;22;20040;-82
2022/09/27 12:11:57;;;;;;;1.67;0.43;;;;;;;13.69;61.06;95209.94;6213021;22;20008;-81
2022/09/27 12:14:34;;;;;;;1.98;1.15;;;;;;;13.69;61.05;95200.25;6213847;22;20056;-82
2022/09/27 12:17:07;;;;;;;1.75;0.93;;;;;;;13.73;62.28;95205.81;6213584;22;20035;-82
2022/09/27 12:19:40;;;;;;;1.52;1.08;;;;;;;13.73;60.31;95192.69;6213617;22;20005;-82
2022/09/27 12:22:20;;;;;;;2.13;1.05;;;;;;;13.75;59.96;95188.00;6213506;22;20047;-82
2022/09/27 12:25:14;;;;;;;3.38;1.20;;;;;;;13.79;62.77;95195.16;6213548;22;20029;-81
2022/09/27 12:27:54;;;;;;;1.08;0.73;;;;;;;13.83;60.93;95189.47;6213823;22;20043;-82
2022/09/27 12:30:37;;;;;;;2.55;1.35;;;;;;;13.86;60.49;95174.06;6213395;22;20001;-82
2022/09/27 12:33:17;;;;;;;1.77;0.90;;;;;;;13.87;59.25;95180.09;6213620;22;20036;-81
2022/09/27 12:35:54;;;;;;;1.42;1.23;;;;;;;13.89;59.93;95180.66;6213723;22;20043;-82
2022/09/27 12:38:37;;;;;;;4.88;1.40;;;;;;;13.89;59.19;95175.44;6213898;22;20009;-82
2022/09/27 12:41:12;;;;;;;2.45;0.73;;;;;;;13.91;60.71;95166.28;6213432;22;20029;-82
2022/09/27 12:43:43;;;;;;;1.08;0.68;;;;;;;13.90;59.00;95159.44;6213699;22;20015;-82
2022/09/27 12:46:29;;;;;;;1.75;0.90;;;;;;;13.88;57.73;95158.88;6213749;22;20017;-81
2022/09/27 12:49:05;;;;;;;0.90;0.68;;;;;;;13.87;59.62;95159.13;6212555;22;20029;-81
2022/09/27 12:51:40;;;;;;;1.38;0.80;;;;;;;13.88;60.68;95158.09;6213517;22;20040;-81
2022/09/27 12:54:35;;;;;;;3.38;1.27;;;;;;;13.86;58.91;95142.59;6213612;22;20037;-82